sensor_id;sensor_type;location;lat;lon;timestamp;temperature;humidity
484;DHT22;228;48.922;12.198;2023-02-25T00:01:26;6.00;75.40
484;DHT22;228;48.922;12.198;2023-02-25T00:03:54;5.90;75.90
484;DHT22;228;48.922;12.198;2023-02-25T00:06:21;5.80;76.20
484;DHT22;228;48.922;12.198;2023-02-25T00:08:48;5.70;76.70
484;DHT22;228;48.922;12.198;2023-02-25T00:11:16;5.80;76.30
484;DHT22;228;48.922;12.198;2023-02-25T00:13:44;5.50;76.40
484;DHT22;228;48.922;12.198;2023-02-25T00:16:11;5.60;77.30
484;DHT22;228;48.922;12.198;2023-02-25T00:18:38;5.50;77.10
484;DHT22;228;48.922;12.198;2023-02-25T00:21:09;5.50;77.30
484;DHT22;228;48.922;12.198;2023-02-25T00:23:44;5.90;76.80
484;DHT22;228;48.922;12.198;2023-02-25T00:26:12;5.90;76.30
484;DHT22;228;48.922;12.198;2023-02-25T00:28:39;5.80;76.70
484;DHT22;228;48.922;12.198;2023-02-25T00:31:11;5.80;76.80
484;DHT22;228;48.922;12.198;2023-02-25T00:33:40;6.00;76.50
484;DHT22;228;48.922;12.198;2023-02-25T00:36:12;5.80;76.30
484;DHT22;228;48.922;12.198;2023-02-25T00:38:43;5.80;76.50
484;DHT22;228;48.922;12.198;2023-02-25T00:41:15;5.90;76.20
484;DHT22;228;48.922;12.198;2023-02-25T00:43:48;5.80;76.70
484;DHT22;228;48.922;12.198;2023-02-25T00:46:16;5.70;77.40
484;DHT22;228;48.922;12.198;2023-02-25T00:48:42;5.90;77.10
484;DHT22;228;48.922;12.198;2023-02-25T00:51:14;5.70;76.90
484;DHT22;228;48.922;12.198;2023-02-25T00:53:42;5.90;77.00
484;DHT22;228;48.922;12.198;2023-02-25T00:56:11;5.70;76.00
484;DHT22;228;48.922;12.198;2023-02-25T00:58:43;5.70;76.70
484;DHT22;228;48.922;12.198;2023-02-25T01:01:30;5.80;77.50
484;DHT22;228;48.922;12.198;2023-02-25T01:04:03;5.70;77.30
484;DHT22;228;48.922;12.198;2023-02-25T01:06:31;5.50;77.60
484;DHT22;228;48.922;12.198;2023-02-25T01:08:59;5.70;78.70
484;DHT22;228;48.922;12.198;2023-02-25T01:11:28;5.70;76.70
484;DHT22;228;48.922;12.198;2023-02-25T01:13:59;5.70;77.30
484;DHT22;228;48.922;12.198;2023-02-25T01:16:31;5.90;77.60
484;DHT22;228;48.922;12.198;2023-02-25T01:19:02;5.90;77.00
484;DHT22;228;48.922;12.198;2023-02-25T01:21:34;6.00;76.50
484;DHT22;228;48.922;12.198;2023-02-25T01:24:19;5.80;77.10
484;DHT22;228;48.922;12.198;2023-02-25T01:26:49;5.60;78.00
484;DHT22;228;48.922;12.198;2023-02-25T01:29:22;5.60;77.70
484;DHT22;228;48.922;12.198;2023-02-25T01:32:08;5.70;78.20
484;DHT22;228;48.922;12.198;2023-02-25T01:34:35;6.00;77.00
484;DHT22;228;48.922;12.198;2023-02-25T01:37:02;6.00;75.70
484;DHT22;228;48.922;12.198;2023-02-25T01:39:29;5.80;76.30
484;DHT22;228;48.922;12.198;2023-02-25T01:41:58;5.80;76.60
484;DHT22;228;48.922;12.198;2023-02-25T01:44:32;5.70;76.70
484;DHT22;228;48.922;12.198;2023-02-25T01:47:00;5.50;77.50
484;DHT22;228;48.922;12.198;2023-02-25T01:49:28;5.50;77.50
484;DHT22;228;48.922;12.198;2023-02-25T01:52:07;5.70;76.90
484;DHT22;228;48.922;12.198;2023-02-25T01:54:41;5.60;77.10
484;DHT22;228;48.922;12.198;2023-02-25T01:57:11;5.80;76.20
484;DHT22;228;48.922;12.198;2023-02-25T01:59:39;5.60;76.90
484;DHT22;228;48.922;12.198;2023-02-25T02:02:08;5.40;77.10
484;DHT22;228;48.922;12.198;2023-02-25T02:04:36;5.40;77.50
484;DHT22;228;48.922;12.198;2023-02-25T02:07:02;5.40;76.80
484;DHT22;228;48.922;12.198;2023-02-25T02:09:30;5.50;77.20
484;DHT22;228;48.922;12.198;2023-02-25T02:12:00;5.30;78.70
484;DHT22;228;48.922;12.198;2023-02-25T02:14:33;5.40;80.20
484;DHT22;228;48.922;12.198;2023-02-25T02:17:07;5.00;80.80
484;DHT22;228;48.922;12.198;2023-02-25T02:40:11;5.30;79.20
484;DHT22;228;48.922;12.198;2023-02-25T02:51:18;5.20;79.10
484;DHT22;228;48.922;12.198;2023-02-25T02:53:56;5.20;80.40
484;DHT22;228;48.922;12.198;2023-02-25T02:56:24;5.30;79.40
484;DHT22;228;48.922;12.198;2023-02-25T02:59:01;5.60;78.30
484;DHT22;228;48.922;12.198;2023-02-25T03:01:35;5.50;77.90
484;DHT22;228;48.922;12.198;2023-02-25T03:04:08;5.30;78.00
484;DHT22;228;48.922;12.198;2023-02-25T03:06:44;5.00;77.90
484;DHT22;228;48.922;12.198;2023-02-25T03:09:30;4.90;79.40
484;DHT22;228;48.922;12.198;2023-02-25T03:11:59;5.10;78.60
484;DHT22;228;48.922;12.198;2023-02-25T03:14:25;5.30;78.20
484;DHT22;228;48.922;12.198;2023-02-25T03:16:59;5.20;77.70
484;DHT22;228;48.922;12.198;2023-02-25T03:22:13;5.10;78.30
484;DHT22;228;48.922;12.198;2023-02-25T03:24:49;4.80;77.50
484;DHT22;228;48.922;12.198;2023-02-25T03:27:24;5.00;78.50
484;DHT22;228;48.922;12.198;2023-02-25T03:32:42;5.00;78.50
484;DHT22;228;48.922;12.198;2023-02-25T03:35:12;5.00;78.00
484;DHT22;228;48.922;12.198;2023-02-25T03:37:41;4.90;78.30
484;DHT22;228;48.922;12.198;2023-02-25T03:40:12;5.00;78.40
484;DHT22;228;48.922;12.198;2023-02-25T03:42:47;4.80;77.90
484;DHT22;228;48.922;12.198;2023-02-25T03:45:20;4.60;79.50
484;DHT22;228;48.922;12.198;2023-02-25T03:47:47;4.50;79.00
484;DHT22;228;48.922;12.198;2023-02-25T03:50:28;4.30;79.00
484;DHT22;228;48.922;12.198;2023-02-25T03:53:00;4.50;78.60
484;DHT22;228;48.922;12.198;2023-02-25T03:55:46;4.50;77.90
484;DHT22;228;48.922;12.198;2023-02-25T03:58:12;4.50;77.70
484;DHT22;228;48.922;12.198;2023-02-25T04:00:40;4.40;78.00
484;DHT22;228;48.922;12.198;2023-02-25T04:03:09;4.50;77.70
484;DHT22;228;48.922;12.198;2023-02-25T04:05:35;4.60;77.50
484;DHT22;228;48.922;12.198;2023-02-25T04:08:02;4.60;76.90
484;DHT22;228;48.922;12.198;2023-02-25T04:10:32;4.50;77.00
484;DHT22;228;48.922;12.198;2023-02-25T04:12:59;4.30;77.40
484;DHT22;228;48.922;12.198;2023-02-25T04:15:25;4.10;77.50
484;DHT22;228;48.922;12.198;2023-02-25T04:17:52;3.90;78.00
484;DHT22;228;48.922;12.198;2023-02-25T04:20:19;4.30;77.10
484;DHT22;228;48.922;12.198;2023-02-25T04:22:45;4.20;76.30
484;DHT22;228;48.922;12.198;2023-02-25T04:25:11;4.50;76.00
484;DHT22;228;48.922;12.198;2023-02-25T04:27:37;4.60;75.30
484;DHT22;228;48.922;12.198;2023-02-25T04:30:03;4.80;74.80
484;DHT22;228;48.922;12.198;2023-02-25T04:32:30;4.70;74.50
484;DHT22;228;48.922;12.198;2023-02-25T04:34:56;4.90;74.70
484;DHT22;228;48.922;12.198;2023-02-25T04:37:28;4.40;75.50
484;DHT22;228;48.922;12.198;2023-02-25T04:39:55;4.30;76.00
484;DHT22;228;48.922;12.198;2023-02-25T04:42:21;4.40;76.50
484;DHT22;228;48.922;12.198;2023-02-25T04:44:47;4.50;75.60
484;DHT22;228;48.922;12.198;2023-02-25T04:47:13;4.70;75.40
484;DHT22;228;48.922;12.198;2023-02-25T04:49:39;4.80;74.70
484;DHT22;228;48.922;12.198;2023-02-25T04:52:13;4.90;74.50
484;DHT22;228;48.922;12.198;2023-02-25T04:54:40;4.90;75.00
484;DHT22;228;48.922;12.198;2023-02-25T04:57:06;4.90;73.80
484;DHT22;228;48.922;12.198;2023-02-25T04:59:33;5.20;74.00
484;DHT22;228;48.922;12.198;2023-02-25T05:01:59;5.20;73.50
484;DHT22;228;48.922;12.198;2023-02-25T05:04:25;5.50;72.90
484;DHT22;228;48.922;12.198;2023-02-25T05:06:51;5.50;72.20
484;DHT22;228;48.922;12.198;2023-02-25T05:09:17;5.30;72.60
484;DHT22;228;48.922;12.198;2023-02-25T05:11:45;5.30;72.30
484;DHT22;228;48.922;12.198;2023-02-25T05:14:11;5.00;72.60
484;DHT22;228;48.922;12.198;2023-02-25T05:16:37;5.00;72.80
484;DHT22;228;48.922;12.198;2023-02-25T05:19:03;5.00;73.20
484;DHT22;228;48.922;12.198;2023-02-25T05:21:29;5.00;72.40
484;DHT22;228;48.922;12.198;2023-02-25T05:23:55;5.30;72.00
484;DHT22;228;48.922;12.198;2023-02-25T05:26:23;4.90;71.20
484;DHT22;228;48.922;12.198;2023-02-25T05:28:54;4.60;72.10
484;DHT22;228;48.922;12.198;2023-02-25T05:31:22;4.50;73.80
484;DHT22;228;48.922;12.198;2023-02-25T05:33:49;4.80;73.00
484;DHT22;228;48.922;12.198;2023-02-25T05:36:16;5.00;72.40
484;DHT22;228;48.922;12.198;2023-02-25T05:38:43;5.10;71.80
484;DHT22;228;48.922;12.198;2023-02-25T05:41:10;5.30;71.60
484;DHT22;228;48.922;12.198;2023-02-25T05:43:38;5.40;71.70
484;DHT22;228;48.922;12.198;2023-02-25T05:46:05;5.00;71.20
484;DHT22;228;48.922;12.198;2023-02-25T05:48:37;5.00;71.90
484;DHT22;228;48.922;12.198;2023-02-25T05:51:10;4.70;72.80
484;DHT22;228;48.922;12.198;2023-02-25T05:53:38;4.40;73.70
484;DHT22;228;48.922;12.198;2023-02-25T05:56:10;4.40;73.90
484;DHT22;228;48.922;12.198;2023-02-25T05:58:38;4.30;74.70
484;DHT22;228;48.922;12.198;2023-02-25T06:01:09;4.50;74.00
484;DHT22;228;48.922;12.198;2023-02-25T06:03:39;4.40;74.10
484;DHT22;228;48.922;12.198;2023-02-25T06:06:07;4.50;73.60
484;DHT22;228;48.922;12.198;2023-02-25T06:08:34;4.80;73.50
484;DHT22;228;48.922;12.198;2023-02-25T06:11:00;4.70;73.10
484;DHT22;228;48.922;12.198;2023-02-25T06:13:27;4.70;73.10
484;DHT22;228;48.922;12.198;2023-02-25T06:15:54;4.90;72.70
484;DHT22;228;48.922;12.198;2023-02-25T06:18:20;5.00;72.00
484;DHT22;228;48.922;12.198;2023-02-25T06:20:46;5.30;71.50
484;DHT22;228;48.922;12.198;2023-02-25T06:23:12;5.50;70.90
484;DHT22;228;48.922;12.198;2023-02-25T06:25:38;6.00;69.50
484;DHT22;228;48.922;12.198;2023-02-25T06:28:04;6.00;68.80
484;DHT22;228;48.922;12.198;2023-02-25T06:30:30;5.80;69.00
484;DHT22;228;48.922;12.198;2023-02-25T06:32:57;6.00;69.20
484;DHT22;228;48.922;12.198;2023-02-25T06:35:24;6.30;68.00
484;DHT22;228;48.922;12.198;2023-02-25T06:37:54;6.20;67.50
484;DHT22;228;48.922;12.198;2023-02-25T06:40:21;6.10;68.40
484;DHT22;228;48.922;12.198;2023-02-25T06:42:47;6.20;67.60
484;DHT22;228;48.922;12.198;2023-02-25T06:45:14;5.90;68.00
484;DHT22;228;48.922;12.198;2023-02-25T06:47:40;6.00;68.30
484;DHT22;228;48.922;12.198;2023-02-25T06:50:07;6.00;67.80
484;DHT22;228;48.922;12.198;2023-02-25T06:52:33;6.10;68.00
484;DHT22;228;48.922;12.198;2023-02-25T06:54:59;5.70;68.20
484;DHT22;228;48.922;12.198;2023-02-25T06:57:25;6.00;68.10
484;DHT22;228;48.922;12.198;2023-02-25T06:59:51;6.10;67.00
484;DHT22;228;48.922;12.198;2023-02-25T07:02:18;6.20;67.50
484;DHT22;228;48.922;12.198;2023-02-25T07:04:44;6.20;66.70
484;DHT22;228;48.922;12.198;2023-02-25T07:07:11;6.00;66.80
484;DHT22;228;48.922;12.198;2023-02-25T07:09:37;5.80;67.30
484;DHT22;228;48.922;12.198;2023-02-25T07:12:03;5.60;67.70
484;DHT22;228;48.922;12.198;2023-02-25T07:14:29;5.30;68.30
484;DHT22;228;48.922;12.198;2023-02-25T07:16:55;5.60;68.70
484;DHT22;228;48.922;12.198;2023-02-25T07:19:21;5.80;67.50
484;DHT22;228;48.922;12.198;2023-02-25T07:21:47;5.20;67.40
484;DHT22;228;48.922;12.198;2023-02-25T07:24:14;5.20;68.30
484;DHT22;228;48.922;12.198;2023-02-25T07:26:41;5.20;68.80
484;DHT22;228;48.922;12.198;2023-02-25T07:29:07;5.10;68.90
484;DHT22;228;48.922;12.198;2023-02-25T07:31:33;5.30;69.40
484;DHT22;228;48.922;12.198;2023-02-25T07:33:59;5.20;69.20
484;DHT22;228;48.922;12.198;2023-02-25T07:36:30;5.20;69.00
484;DHT22;228;48.922;12.198;2023-02-25T07:38:58;5.50;68.50
484;DHT22;228;48.922;12.198;2023-02-25T07:41:27;5.40;68.00
484;DHT22;228;48.922;12.198;2023-02-25T07:43:57;5.20;68.40
484;DHT22;228;48.922;12.198;2023-02-25T07:46:24;5.20;68.80
484;DHT22;228;48.922;12.198;2023-02-25T07:48:51;5.30;68.80
484;DHT22;228;48.922;12.198;2023-02-25T07:51:19;5.10;68.90
484;DHT22;228;48.922;12.198;2023-02-25T07:53:47;5.20;68.90
484;DHT22;228;48.922;12.198;2023-02-25T07:56:15;5.10;68.80
484;DHT22;228;48.922;12.198;2023-02-25T07:58:42;4.70;68.90
484;DHT22;228;48.922;12.198;2023-02-25T08:03:45;5.30;68.70
484;DHT22;228;48.922;12.198;2023-02-25T08:06:13;5.40;67.50
484;DHT22;228;48.922;12.198;2023-02-25T08:08:40;5.70;67.90
484;DHT22;228;48.922;12.198;2023-02-25T08:11:10;5.90;66.60
484;DHT22;228;48.922;12.198;2023-02-25T08:13:38;5.70;66.20
484;DHT22;228;48.922;12.198;2023-02-25T08:16:08;5.80;67.20
484;DHT22;228;48.922;12.198;2023-02-25T08:18:36;6.20;66.40
484;DHT22;228;48.922;12.198;2023-02-25T08:21:03;5.90;65.60
484;DHT22;228;48.922;12.198;2023-02-25T08:23:29;5.70;65.80
484;DHT22;228;48.922;12.198;2023-02-25T08:25:57;5.70;66.90
484;DHT22;228;48.922;12.198;2023-02-25T08:28:25;5.70;67.20
484;DHT22;228;48.922;12.198;2023-02-25T08:30:53;5.60;67.70
484;DHT22;228;48.922;12.198;2023-02-25T08:33:19;5.80;68.00
484;DHT22;228;48.922;12.198;2023-02-25T08:35:46;5.70;66.70
484;DHT22;228;48.922;12.198;2023-02-25T08:38:12;5.90;67.00
484;DHT22;228;48.922;12.198;2023-02-25T08:40:38;5.80;66.50
484;DHT22;228;48.922;12.198;2023-02-25T08:43:05;5.90;67.10
484;DHT22;228;48.922;12.198;2023-02-25T08:45:32;5.70;66.80
484;DHT22;228;48.922;12.198;2023-02-25T08:47:58;5.50;67.50
484;DHT22;228;48.922;12.198;2023-02-25T08:50:26;5.70;67.60
484;DHT22;228;48.922;12.198;2023-02-25T08:52:52;5.90;67.20
484;DHT22;228;48.922;12.198;2023-02-25T08:55:18;5.80;65.90
484;DHT22;228;48.922;12.198;2023-02-25T08:57:45;5.60;63.60
484;DHT22;228;48.922;12.198;2023-02-25T09:00:12;5.80;66.30
484;DHT22;228;48.922;12.198;2023-02-25T09:02:42;5.90;66.20
484;DHT22;228;48.922;12.198;2023-02-25T09:05:09;6.10;67.50
484;DHT22;228;48.922;12.198;2023-02-25T09:07:36;6.10;65.90
484;DHT22;228;48.922;12.198;2023-02-25T09:10:03;5.90;65.70
484;DHT22;228;48.922;12.198;2023-02-25T09:12:34;5.70;66.00
484;DHT22;228;48.922;12.198;2023-02-25T09:15:01;5.70;66.40
484;DHT22;228;48.922;12.198;2023-02-25T09:17:27;6.00;66.40
484;DHT22;228;48.922;12.198;2023-02-25T09:19:53;6.00;65.20
484;DHT22;228;48.922;12.198;2023-02-25T09:22:19;6.60;64.90
484;DHT22;228;48.922;12.198;2023-02-25T09:24:45;6.50;62.60
484;DHT22;228;48.922;12.198;2023-02-25T09:27:11;6.40;61.90
484;DHT22;228;48.922;12.198;2023-02-25T09:29:38;6.40;62.50
484;DHT22;228;48.922;12.198;2023-02-25T09:32:06;6.20;62.30
484;DHT22;228;48.922;12.198;2023-02-25T09:34:32;6.30;63.90
484;DHT22;228;48.922;12.198;2023-02-25T09:37:07;6.20;61.80
484;DHT22;228;48.922;12.198;2023-02-25T09:39:34;6.30;62.80
484;DHT22;228;48.922;12.198;2023-02-25T09:42:07;6.40;62.00
484;DHT22;228;48.922;12.198;2023-02-25T09:44:44;6.60;62.30
484;DHT22;228;48.922;12.198;2023-02-25T09:47:29;6.60;61.70
484;DHT22;228;48.922;12.198;2023-02-25T09:50:03;6.60;62.80
484;DHT22;228;48.922;12.198;2023-02-25T09:52:39;6.40;61.00
484;DHT22;228;48.922;12.198;2023-02-25T09:57:55;6.30;62.70
484;DHT22;228;48.922;12.198;2023-02-25T10:00:29;6.00;62.90
484;DHT22;228;48.922;12.198;2023-02-25T10:09:20;6.00;64.00
484;DHT22;228;48.922;12.198;2023-02-25T10:12:06;5.90;63.60
484;DHT22;228;48.922;12.198;2023-02-25T10:26:02;6.60;60.60
484;DHT22;228;48.922;12.198;2023-02-25T10:28:32;6.50;61.50
484;DHT22;228;48.922;12.198;2023-02-25T10:33:36;6.70;62.00
484;DHT22;228;48.922;12.198;2023-02-25T10:36:09;6.70;60.60
484;DHT22;228;48.922;12.198;2023-02-25T10:38:46;6.90;61.60
484;DHT22;228;48.922;12.198;2023-02-25T10:41:13;7.20;60.10
484;DHT22;228;48.922;12.198;2023-02-25T10:43:40;7.60;58.50
484;DHT22;228;48.922;12.198;2023-02-25T10:46:33;7.50;59.60
484;DHT22;228;48.922;12.198;2023-02-25T10:49:14;7.10;57.30
484;DHT22;228;48.922;12.198;2023-02-25T10:52:15;6.90;57.50
484;DHT22;228;48.922;12.198;2023-02-25T10:54:47;7.10;59.10
484;DHT22;228;48.922;12.198;2023-02-25T10:57:17;7.50;57.80
484;DHT22;228;48.922;12.198;2023-02-25T11:00:05;7.80;58.70
484;DHT22;228;48.922;12.198;2023-02-25T11:02:42;7.60;55.40
484;DHT22;228;48.922;12.198;2023-02-25T11:05:28;6.60;58.10
484;DHT22;228;48.922;12.198;2023-02-25T11:07:56;6.10;59.60
484;DHT22;228;48.922;12.198;2023-02-25T11:10:22;6.10;61.60
484;DHT22;228;48.922;12.198;2023-02-25T11:12:50;6.30;60.70
484;DHT22;228;48.922;12.198;2023-02-25T11:17:51;6.60;59.40
484;DHT22;228;48.922;12.198;2023-02-25T11:20:27;6.90;57.40
484;DHT22;228;48.922;12.198;2023-02-25T11:22:55;7.10;58.60
484;DHT22;228;48.922;12.198;2023-02-25T11:25:42;7.30;57.10
484;DHT22;228;48.922;12.198;2023-02-25T11:30:50;7.40;58.60
484;DHT22;228;48.922;12.198;2023-02-25T11:33:28;7.30;57.20
484;DHT22;228;48.922;12.198;2023-02-25T11:35:58;7.50;57.30
484;DHT22;228;48.922;12.198;2023-02-25T11:38:29;7.70;56.30
484;DHT22;228;48.922;12.198;2023-02-25T11:40:58;8.20;55.00
484;DHT22;228;48.922;12.198;2023-02-25T11:43:38;8.70;54.30
484;DHT22;228;48.922;12.198;2023-02-25T11:46:15;8.90;53.60
484;DHT22;228;48.922;12.198;2023-02-25T12:03:43;8.70;53.30
484;DHT22;228;48.922;12.198;2023-02-25T12:13:12;9.20;53.10
484;DHT22;228;48.922;12.198;2023-02-25T12:24:27;13.00;44.00
484;DHT22;228;48.922;12.198;2023-02-25T12:27:34;13.80;40.70
484;DHT22;228;48.922;12.198;2023-02-25T12:34:00;12.50;44.10
484;DHT22;228;48.922;12.198;2023-02-25T12:36:52;12.70;41.60
484;DHT22;228;48.922;12.198;2023-02-25T12:42:47;13.90;40.90
484;DHT22;228;48.922;12.198;2023-02-25T12:49:00;14.90;37.70
484;DHT22;228;48.922;12.198;2023-02-25T12:52:05;12.80;40.00
484;DHT22;228;48.922;12.198;2023-02-25T12:54:53;12.40;40.30
484;DHT22;228;48.922;12.198;2023-02-25T12:57:58;13.70;38.80
484;DHT22;228;48.922;12.198;2023-02-25T13:13:16;14.40;37.40
484;DHT22;228;48.922;12.198;2023-02-25T13:21:31;10.00;45.80
484;DHT22;228;48.922;12.198;2023-02-25T13:24:40;9.20;48.60
484;DHT22;228;48.922;12.198;2023-02-25T13:34:12;8.10;50.20
484;DHT22;228;48.922;12.198;2023-02-25T13:40:11;9.00;48.50
484;DHT22;228;48.922;12.198;2023-02-25T13:55:04;5.10;66.30
484;DHT22;228;48.922;12.198;2023-02-25T14:12:38;3.20;81.50
484;DHT22;228;48.922;12.198;2023-02-25T14:31:05;4.50;82.90
484;DHT22;228;48.922;12.198;2023-02-25T14:33:53;6.50;78.10
484;DHT22;228;48.922;12.198;2023-02-25T14:39:29;9.50;63.90
484;DHT22;228;48.922;12.198;2023-02-25T14:45:01;11.00;58.00
484;DHT22;228;48.922;12.198;2023-02-25T14:47:39;11.30;54.10
484;DHT22;228;48.922;12.198;2023-02-25T14:56:40;5.30;70.70
484;DHT22;228;48.922;12.198;2023-02-25T15:06:45;3.10;85.60
484;DHT22;228;48.922;12.198;2023-02-25T15:20:41;3.90;84.80
484;DHT22;228;48.922;12.198;2023-02-25T15:23:12;3.60;84.20
484;DHT22;228;48.922;12.198;2023-02-25T15:27:30;3.80;83.80
484;DHT22;228;48.922;12.198;2023-02-25T15:38:00;2.70;86.30
484;DHT22;228;48.922;12.198;2023-02-25T15:43:37;3.10;85.90
484;DHT22;228;48.922;12.198;2023-02-25T15:48:33;3.10;85.10
484;DHT22;228;48.922;12.198;2023-02-25T15:51:02;3.30;84.70
484;DHT22;228;48.922;12.198;2023-02-25T15:53:39;3.40;84.20
484;DHT22;228;48.922;12.198;2023-02-25T16:06:04;3.80;82.50
484;DHT22;228;48.922;12.198;2023-02-25T16:14:29;4.10;81.70
484;DHT22;228;48.922;12.198;2023-02-25T16:17:25;4.30;80.90
484;DHT22;228;48.922;12.198;2023-02-25T16:19:58;4.40;80.30
484;DHT22;228;48.922;12.198;2023-02-25T16:22:36;4.40;79.90
484;DHT22;228;48.922;12.198;2023-02-25T16:25:13;4.30;80.10
484;DHT22;228;48.922;12.198;2023-02-25T16:28:10;4.50;80.00
484;DHT22;228;48.922;12.198;2023-02-25T16:34:04;4.70;80.00
484;DHT22;228;48.922;12.198;2023-02-25T16:36:43;5.00;78.80
484;DHT22;228;48.922;12.198;2023-02-25T16:39:19;4.90;78.00
484;DHT22;228;48.922;12.198;2023-02-25T16:41:46;5.10;77.50
484;DHT22;228;48.922;12.198;2023-02-25T16:44:19;5.20;77.10
484;DHT22;228;48.922;12.198;2023-02-25T16:46:50;5.30;77.20
484;DHT22;228;48.922;12.198;2023-02-25T16:49:27;5.50;76.30
484;DHT22;228;48.922;12.198;2023-02-25T16:51:56;5.70;75.20
484;DHT22;228;48.922;12.198;2023-02-25T16:54:36;5.70;76.20
484;DHT22;228;48.922;12.198;2023-02-25T16:57:04;5.70;75.30
484;DHT22;228;48.922;12.198;2023-02-25T16:59:36;5.60;74.60
484;DHT22;228;48.922;12.198;2023-02-25T17:02:20;5.20;75.50
484;DHT22;228;48.922;12.198;2023-02-25T17:04:49;5.30;75.60
484;DHT22;228;48.922;12.198;2023-02-25T17:07:22;4.90;76.90
484;DHT22;228;48.922;12.198;2023-02-25T17:09:55;4.80;77.20
484;DHT22;228;48.922;12.198;2023-02-25T17:12:42;4.80;77.10
484;DHT22;228;48.922;12.198;2023-02-25T17:15:27;4.80;76.90
484;DHT22;228;48.922;12.198;2023-02-25T17:18:16;4.60;77.30
484;DHT22;228;48.922;12.198;2023-02-25T17:20:46;4.80;77.20
484;DHT22;228;48.922;12.198;2023-02-25T17:23:14;4.70;76.80
484;DHT22;228;48.922;12.198;2023-02-25T17:25:43;4.90;76.70
484;DHT22;228;48.922;12.198;2023-02-25T17:28:21;4.60;76.20
484;DHT22;228;48.922;12.198;2023-02-25T17:30:49;4.40;77.10
484;DHT22;228;48.922;12.198;2023-02-25T17:33:24;4.60;77.00
484;DHT22;228;48.922;12.198;2023-02-25T17:35:58;4.70;75.80
484;DHT22;228;48.922;12.198;2023-02-25T17:38:28;4.80;75.20
484;DHT22;228;48.922;12.198;2023-02-25T17:40:55;4.80;75.60
484;DHT22;228;48.922;12.198;2023-02-25T17:43:24;4.70;76.00
484;DHT22;228;48.922;12.198;2023-02-25T17:46:00;4.50;76.50
484;DHT22;228;48.922;12.198;2023-02-25T17:48:31;4.50;77.40
484;DHT22;228;48.922;12.198;2023-02-25T17:51:03;4.30;77.90
484;DHT22;228;48.922;12.198;2023-02-25T17:56:14;4.40;77.60
484;DHT22;228;48.922;12.198;2023-02-25T17:58:44;4.20;77.60
484;DHT22;228;48.922;12.198;2023-02-25T18:01:24;4.00;78.80
484;DHT22;228;48.922;12.198;2023-02-25T18:03:57;4.00;78.80
484;DHT22;228;48.922;12.198;2023-02-25T18:06:41;3.90;79.20
484;DHT22;228;48.922;12.198;2023-02-25T18:12:06;4.30;78.30
484;DHT22;228;48.922;12.198;2023-02-25T18:14:43;4.20;77.50
484;DHT22;228;48.922;12.198;2023-02-25T18:17:26;3.80;78.80
484;DHT22;228;48.922;12.198;2023-02-25T18:20:00;4.00;79.20
484;DHT22;228;48.922;12.198;2023-02-25T18:22:39;4.10;79.30
484;DHT22;228;48.922;12.198;2023-02-25T18:25:36;4.10;78.60
484;DHT22;228;48.922;12.198;2023-02-25T18:30:47;4.50;77.20
484;DHT22;228;48.922;12.198;2023-02-25T18:33:15;4.60;76.50
484;DHT22;228;48.922;12.198;2023-02-25T18:35:44;4.80;75.90
484;DHT22;228;48.922;12.198;2023-02-25T18:38:25;4.80;75.80
484;DHT22;228;48.922;12.198;2023-02-25T18:40:52;4.90;75.70
484;DHT22;228;48.922;12.198;2023-02-25T18:43:21;4.70;76.10
484;DHT22;228;48.922;12.198;2023-02-25T18:45:48;4.80;76.10
484;DHT22;228;48.922;12.198;2023-02-25T18:48:14;4.40;76.30
484;DHT22;228;48.922;12.198;2023-02-25T18:50:41;4.40;77.30
484;DHT22;228;48.922;12.198;2023-02-25T18:53:22;4.40;77.60
484;DHT22;228;48.922;12.198;2023-02-25T18:55:51;4.30;77.00
484;DHT22;228;48.922;12.198;2023-02-25T18:58:19;4.10;77.90
484;DHT22;228;48.922;12.198;2023-02-25T19:00:54;4.10;78.20
484;DHT22;228;48.922;12.198;2023-02-25T19:03:30;3.80;79.20
484;DHT22;228;48.922;12.198;2023-02-25T19:05:58;3.50;79.70
484;DHT22;228;48.922;12.198;2023-02-25T19:08:24;3.20;81.10
484;DHT22;228;48.922;12.198;2023-02-25T19:10:52;3.20;80.30
484;DHT22;228;48.922;12.198;2023-02-25T19:13:38;3.30;79.80
484;DHT22;228;48.922;12.198;2023-02-25T19:16:05;3.30;79.50
484;DHT22;228;48.922;12.198;2023-02-25T19:18:32;3.70;78.50
484;DHT22;228;48.922;12.198;2023-02-25T19:20:59;3.70;75.50
484;DHT22;228;48.922;12.198;2023-02-25T19:23:25;3.40;73.40
484;DHT22;228;48.922;12.198;2023-02-25T19:25:56;3.30;74.10
484;DHT22;228;48.922;12.198;2023-02-25T19:28:23;3.50;74.90
484;DHT22;228;48.922;12.198;2023-02-25T19:30:49;3.50;73.60
484;DHT22;228;48.922;12.198;2023-02-25T19:33:15;3.40;70.90
484;DHT22;228;48.922;12.198;2023-02-25T19:35:42;3.20;70.80
484;DHT22;228;48.922;12.198;2023-02-25T19:38:15;3.10;71.50
484;DHT22;228;48.922;12.198;2023-02-25T19:40:43;3.00;71.70
484;DHT22;228;48.922;12.198;2023-02-25T19:43:11;3.30;72.70
484;DHT22;228;48.922;12.198;2023-02-25T19:45:39;3.50;71.80
484;DHT22;228;48.922;12.198;2023-02-25T19:48:05;3.60;71.20
484;DHT22;228;48.922;12.198;2023-02-25T19:50:32;3.30;70.80
484;DHT22;228;48.922;12.198;2023-02-25T19:53:00;3.10;70.70
484;DHT22;228;48.922;12.198;2023-02-25T19:55:28;3.00;71.50
484;DHT22;228;48.922;12.198;2023-02-25T19:57:54;3.20;70.80
484;DHT22;228;48.922;12.198;2023-02-25T20:00:22;2.70;71.20
484;DHT22;228;48.922;12.198;2023-02-25T20:02:50;2.90;72.50
484;DHT22;228;48.922;12.198;2023-02-25T20:05:19;3.40;71.40
484;DHT22;228;48.922;12.198;2023-02-25T20:07:46;3.20;70.80
484;DHT22;228;48.922;12.198;2023-02-25T20:10:13;3.20;70.80
484;DHT22;228;48.922;12.198;2023-02-25T20:12:41;3.30;70.80
484;DHT22;228;48.922;12.198;2023-02-25T20:15:09;3.80;70.30
484;DHT22;228;48.922;12.198;2023-02-25T20:17:41;3.80;69.30
484;DHT22;228;48.922;12.198;2023-02-25T20:20:11;3.60;69.10
484;DHT22;228;48.922;12.198;2023-02-25T20:22:38;3.80;71.20
484;DHT22;228;48.922;12.198;2023-02-25T20:25:06;3.80;70.40
484;DHT22;228;48.922;12.198;2023-02-25T20:27:33;3.80;70.10
484;DHT22;228;48.922;12.198;2023-02-25T20:30:02;3.70;70.60
484;DHT22;228;48.922;12.198;2023-02-25T20:32:29;3.70;71.30
484;DHT22;228;48.922;12.198;2023-02-25T20:34:55;3.80;70.70
484;DHT22;228;48.922;12.198;2023-02-25T20:37:29;3.50;71.00
484;DHT22;228;48.922;12.198;2023-02-25T20:39:58;3.40;72.30
484;DHT22;228;48.922;12.198;2023-02-25T20:42:27;3.30;72.70
484;DHT22;228;48.922;12.198;2023-02-25T20:44:56;3.40;73.00
484;DHT22;228;48.922;12.198;2023-02-25T20:47:26;3.40;73.40
484;DHT22;228;48.922;12.198;2023-02-25T20:49:54;3.60;73.10
484;DHT22;228;48.922;12.198;2023-02-25T20:52:21;3.50;72.40
484;DHT22;228;48.922;12.198;2023-02-25T20:54:48;3.40;74.00
484;DHT22;228;48.922;12.198;2023-02-25T20:57:17;3.50;73.00
484;DHT22;228;48.922;12.198;2023-02-25T20:59:45;3.70;72.40
484;DHT22;228;48.922;12.198;2023-02-25T21:02:13;3.90;73.00
484;DHT22;228;48.922;12.198;2023-02-25T21:04:39;4.20;71.40
484;DHT22;228;48.922;12.198;2023-02-25T21:07:06;4.50;69.80
484;DHT22;228;48.922;12.198;2023-02-25T21:09:32;4.20;68.90
484;DHT22;228;48.922;12.198;2023-02-25T21:11:58;4.30;69.20